Time;durP1;ratioP1;P1;durP2;ratioP2;P2;SDS_P1;SDS_P2;PMS_P1;PMS_P2;Temp;Humidity;BMP_temperature;BMP_pressure;BME280_temperature;BME280_humidity;BME280_pressure;Samples;Min_cycle;Max_cycle;Signal;HPM_P1;HPM_P2
2022/01/01 00:01:41;;;;;;;149.27;88.47;;;2.50;99.90;;;;;;4157003;28;20505;-56
2022/01/01 00:03:44;;;;;;;452.38;118.80;;;2.40;99.90;;;;;;4160864;28;20045;-56
2022/01/01 00:05:46;;;;;;;276.90;99.07;;;2.40;99.90;;;;;;4152099;28;20042;-56
2022/01/01 00:07:48;;;;;;;566.00;138.90;;;2.30;99.90;;;;;;4162640;28;20084;-56
2022/01/01 00:09:50;;;;;;;164.23;110.13;;;2.30;99.90;;;;;;4150168;28;20050;-57
2022/01/01 00:11:53;;;;;;;151.95;103.63;;;2.30;99.90;;;;;;4162527;28;20068;-57
2022/01/01 00:13:56;;;;;;;1602.30;269.13;;;2.20;99.90;;;;;;4165238;28;20551;-56
2022/01/01 00:16:03;;;;;;;1319.30;264.85;;;2.40;99.90;;;;;;4163036;28;20041;-55
2022/01/01 00:18:05;;;;;;;157.05;103.63;;;2.20;99.90;;;;;;4164316;28;20037;-56
2022/01/01 00:20:09;;;;;;;954.88;208.27;;;2.30;99.90;;;;;;4163904;28;20041;-56
2022/01/01 00:22:11;;;;;;;1166.82;193.48;;;2.20;99.90;;;;;;4164883;28;20152;-56
2022/01/01 00:24:14;;;;;;;707.70;129.38;;;2.00;99.90;;;;;;4162797;28;20057;-56
2022/01/01 00:26:16;;;;;;;603.67;114.10;;;1.80;99.90;;;;;;4164452;28;20042;-56
2022/01/01 00:28:18;;;;;;;523.92;122.93;;;1.70;99.90;;;;;;4163358;28;20033;-57
2022/01/01 00:30:20;;;;;;;533.40;114.03;;;1.50;99.90;;;;;;4164148;28;20033;-56
2022/01/01 00:32:22;;;;;;;142.43;65.38;;;1.50;99.90;;;;;;4161840;28;20066;-56
2022/01/01 00:34:24;;;;;;;165.68;67.97;;;1.70;99.90;;;;;;4163232;28;20080;-56
2022/01/01 00:36:27;;;;;;;72.07;51.50;;;1.80;99.90;;;;;;4161875;28;20045;-56
2022/01/01 00:38:29;;;;;;;;;;;2.00;99.90;;;;;;4150194;28;20046;-57
2022/01/01 00:40:31;;;;;;;81.28;39.58;;;2.10;99.90;;;;;;4164298;28;19925;-56
2022/01/01 00:42:33;;;;;;;55.10;33.42;;;2.10;99.90;;;;;;4174908;28;20075;-56
2022/01/01 00:44:35;;;;;;;40.95;30.13;;;2.10;99.90;;;;;;4165304;28;20056;-57
2022/01/01 00:46:37;;;;;;;55.03;32.92;;;2.20;99.90;;;;;;4168611;28;20037;-56
2022/01/01 00:48:39;;;;;;;84.05;50.90;;;2.30;99.90;;;;;;4164484;28;20076;-56
2022/01/01 00:51:00;;;;;;;53.55;40.70;;;2.30;99.90;;;;;;4151255;28;20248;-55
2022/01/01 00:53:03;;;;;;;104.50;47.70;;;2.20;99.90;;;;;;4163471;28;20132;-56
2022/01/01 00:55:05;;;;;;;95.20;52.00;;;2.20;99.90;;;;;;4151582;28;20115;-56
2022/01/01 00:57:07;;;;;;;138.75;75.57;;;2.20;99.90;;;;;;4165082;28;20092;-57
2022/01/01 00:59:09;;;;;;;144.02;92.72;;;2.30;99.90;;;;;;4163771;28;20049;-57
2022/01/01 01:01:11;;;;;;;277.38;117.00;;;2.30;99.90;;;;;;4162973;28;20068;-56
2022/01/01 01:03:16;;;;;;;483.95;144.35;;;2.20;99.90;;;;;;4162570;28;20091;-57
2022/01/01 01:05:18;;;;;;;382.63;139.38;;;2.10;99.90;;;;;;4162296;28;20700;-56
2022/01/01 01:07:20;;;;;;;340.60;122.82;;;1.90;99.90;;;;;;4161348;28;20567;-57
2022/01/01 01:09:22;;;;;;;309.48;115.28;;;1.90;99.90;;;;;;4164635;28;20502;-57
2022/01/01 01:11:25;;;;;;;413.27;122.88;;;1.90;99.90;;;;;;4161577;28;20396;-56
2022/01/01 01:13:31;;;;;;;319.98;106.68;;;1.80;99.90;;;;;;4164791;28;20034;-56
2022/01/01 01:15:34;;;;;;;318.60;101.30;;;1.80;99.90;;;;;;4158966;28;20061;-56
2022/01/01 01:17:37;;;;;;;602.90;117.55;;;1.80;99.90;;;;;;4164236;28;20033;-57
2022/01/01 01:19:39;;;;;;;333.90;97.85;;;1.70;99.90;;;;;;4161820;28;20045;-56
2022/01/01 01:21:43;;;;;;;426.52;92.20;;;1.70;99.90;;;;;;4163151;28;20389;-57
2022/01/01 01:23:47;;;;;;;373.65;95.35;;;1.60;99.90;;;;;;4160846;28;20076;-56
2022/01/01 01:25:49;;;;;;;145.25;85.38;;;1.50;99.90;;;;;;4163140;28;20041;-56
2022/01/01 01:27:51;;;;;;;116.40;75.30;;;1.60;99.90;;;;;;4162916;28;20044;-56
2022/01/01 01:29:53;;;;;;;148.40;87.95;;;1.80;99.90;;;;;;4164052;28;20037;-56
2022/01/01 01:31:55;;;;;;;186.85;90.65;;;2.00;99.90;;;;;;4162746;28;20401;-56
2022/01/01 01:33:57;;;;;;;115.68;80.13;;;1.80;99.90;;;;;;4163641;28;20092;-56
2022/01/01 01:35:59;;;;;;;180.70;78.95;;;2.00;99.90;;;;;;4160749;28;20065;-56
2022/01/01 01:38:02;;;;;;;255.30;80.18;;;2.00;99.90;;;;;;4162273;28;20120;-56
2022/01/01 01:40:06;;;;;;;90.68;69.35;;;1.80;99.90;;;;;;4161579;28;20064;-56
2022/01/01 01:42:08;;;;;;;143.90;77.10;;;1.90;99.90;;;;;;4162584;28;20050;-56
2022/01/01 01:44:29;;;;;;;125.43;75.25;;;1.90;99.90;;;;;;4160563;28;20045;-57
2022/01/01 01:46:31;;;;;;;317.17;87.20;;;2.00;99.90;;;;;;4162873;28;20037;-57
2022/01/01 01:48:37;;;;;;;117.25;75.13;;;1.90;99.90;;;;;;4161064;28;20036;-56
2022/01/01 01:50:40;;;;;;;146.75;79.25;;;1.90;99.90;;;;;;4154571;28;20044;-57
2022/01/01 01:52:46;;;;;;;128.07;70.30;;;2.00;99.90;;;;;;4160406;28;20033;-56
2022/01/01 01:54:48;;;;;;;137.48;70.47;;;2.00;99.90;;;;;;4160124;28;20051;-56
2022/01/01 01:56:52;;;;;;;118.90;67.30;;;2.00;99.90;;;;;;4161706;28;20099;-56
2022/01/01 01:58:54;;;;;;;133.25;65.97;;;2.00;99.90;;;;;;4155886;28;20064;-55
2022/01/01 02:01:20;;;;;;;165.27;65.65;;;2.00;99.90;;;;;;4161318;28;20059;-56
2022/01/01 02:03:22;;;;;;;176.98;65.75;;;2.10;99.90;;;;;;4159260;28;20038;-56
2022/01/01 02:05:24;;;;;;;201.20;67.82;;;2.00;99.90;;;;;;4163904;28;20033;-56
2022/01/01 02:07:27;;;;;;;226.07;60.08;;;2.00;99.90;;;;;;4161834;28;20045;-56
2022/01/01 02:09:29;;;;;;;;;;;2.00;99.90;;;;;;4161203;28;20046;-56
2022/01/01 02:11:32;;;;;;;184.93;53.30;;;2.00;99.90;;;;;;4160312;28;20370;-56
2022/01/01 02:13:59;;;;;;;119.53;53.30;;;2.00;99.90;;;;;;4161850;28;20069;-57
2022/01/01 02:18:24;;;;;;;77.63;49.20;;;2.10;99.90;;;;;;4161483;28;20037;-56
2022/01/01 02:20:28;;;;;;;125.32;53.67;;;2.20;99.90;;;;;;4161373;28;20064;-56
2022/01/01 02:22:47;;;;;;;226.15;57.65;;;2.10;99.90;;;;;;4162632;28;20045;-57
2022/01/01 02:24:49;;;;;;;229.63;60.97;;;2.00;99.90;;;;;;4160824;28;20034;-57
2022/01/01 02:26:51;;;;;;;279.55;67.43;;;2.00;99.90;;;;;;4163229;28;20461;-56
2022/01/01 02:28:53;;;;;;;184.10;66.00;;;2.00;99.90;;;;;;4159756;28;20457;-56
2022/01/01 02:30:56;;;;;;;223.15;65.07;;;2.00;99.90;;;;;;4176332;28;20075;-56
2022/01/01 02:32:58;;;;;;;163.30;62.58;;;1.90;99.90;;;;;;4160096;28;20099;-56
2022/01/01 02:35:00;;;;;;;119.47;59.50;;;2.00;99.90;;;;;;4163506;28;20045;-56
2022/01/01 02:37:03;;;;;;;103.20;57.65;;;2.00;99.90;;;;;;4160484;28;20064;-56
2022/01/01 02:39:11;;;;;;;78.00;49.45;;;2.00;99.90;;;;;;4147376;28;20072;-58
2022/01/01 02:41:13;;;;;;;80.00;55.08;;;2.10;99.90;;;;;;4158967;28;20072;-58
2022/01/01 02:43:17;;;;;;;140.85;60.50;;;2.10;99.90;;;;;;4170189;28;20124;-57
2022/01/01 02:45:20;;;;;;;72.93;48.85;;;2.00;99.90;;;;;;4160943;28;20124;-57
2022/01/01 02:47:22;;;;;;;63.22;42.72;;;2.10;99.90;;;;;;4161751;28;20038;-57
2022/01/01 02:49:24;;;;;;;57.45;43.92;;;2.20;99.90;;;;;;4160674;28;20033;-57
2022/01/01 02:51:27;;;;;;;69.78;46.53;;;2.30;99.90;;;;;;4162837;28;20099;-57
2022/01/01 02:53:30;;;;;;;71.15;46.80;;;2.40;99.90;;;;;;4162044;28;20042;-57
2022/01/01 02:55:32;;;;;;;128.70;56.85;;;2.50;99.90;;;;;;4162474;28;20045;-56
2022/01/01 02:57:34;;;;;;;71.07;46.70;;;2.50;99.90;;;;;;4161103;28;20065;-58
2022/01/01 02:59:36;;;;;;;97.13;48.63;;;2.40;99.90;;;;;;4160018;28;20076;-59
2022/01/01 03:01:38;;;;;;;220.70;51.83;;;2.40;99.90;;;;;;4161320;28;20378;-57
2022/01/01 03:03:41;;;;;;;128.63;48.83;;;2.40;99.90;;;;;;4161267;28;20073;-57
2022/01/01 03:05:44;;;;;;;169.70;53.92;;;2.40;99.90;;;;;;4160650;28;20036;-57
2022/01/01 03:07:46;;;;;;;176.77;47.42;;;2.30;99.90;;;;;;4151205;28;20072;-57
2022/01/01 03:09:48;;;;;;;410.50;59.45;;;2.30;99.90;;;;;;4161503;28;20045;-57
2022/01/01 03:11:51;;;;;;;150.07;45.90;;;2.20;99.90;;;;;;4161225;28;20434;-57
2022/01/01 03:13:53;;;;;;;152.85;47.80;;;2.20;99.90;;;;;;4161883;28;20042;-56
2022/01/01 03:15:55;;;;;;;184.23;52.67;;;2.20;99.90;;;;;;4161333;28;20037;-56
2022/01/01 03:17:58;;;;;;;81.60;46.28;;;2.10;99.90;;;;;;4159924;28;22711;-57
2022/01/01 03:20:00;;;;;;;198.88;49.72;;;2.20;99.90;;;;;;4161294;28;20478;-56
2022/01/01 03:22:03;;;;;;;279.02;53.10;;;2.20;99.90;;;;;;4161393;28;20080;-57
2022/01/01 03:24:06;;;;;;;98.57;44.80;;;2.20;99.90;;;;;;4160115;28;20034;-57
2022/01/01 03:26:08;;;;;;;128.43;43.60;;;2.10;99.90;;;;;;4163159;28;20119;-57
2022/01/01 03:28:10;;;;;;;99.78;42.63;;;2.20;99.90;;;;;;4160370;28;20042;-57
2022/01/01 03:30:12;;;;;;;65.97;41.33;;;2.20;99.90;;;;;;4165066;28;20049;-57
2022/01/01 03:32:15;;;;;;;80.53;43.10;;;2.20;99.90;;;;;;4163812;28;20413;-57
2022/01/01 03:34:17;;;;;;;56.20;41.50;;;2.20;99.90;;;;;;4165056;28;20045;-57
2022/01/01 03:36:19;;;;;;;41.67;36.25;;;2.30;99.90;;;;;;4163480;28;20037;-56
2022/01/01 03:38:21;;;;;;;53.45;36.03;;;2.40;99.90;;;;;;4166095;28;20061;-56
2022/01/01 03:40:23;;;;;;;44.83;31.55;;;2.50;99.90;;;;;;4164231;28;20076;-57
2022/01/01 03:42:25;;;;;;;31.15;28.08;;;2.40;99.90;;;;;;4164140;28;20077;-57
2022/01/01 03:44:27;;;;;;;36.55;30.50;;;2.50;99.90;;;;;;4163567;28;20037;-57
2022/01/01 03:46:30;;;;;;;91.18;33.75;;;2.50;99.90;;;;;;4165149;28;20069;-56
2022/01/01 03:48:32;;;;;;;214.93;40.75;;;2.40;99.90;;;;;;4163743;28;20045;-57
2022/01/01 03:50:35;;;;;;;466.30;54.75;;;2.40;99.90;;;;;;4170310;28;20593;-57
2022/01/01 03:52:44;;;;;;;276.70;42.20;;;2.30;99.90;;;;;;4163072;28;20124;-57
2022/01/01 03:54:46;;;;;;;247.85;45.33;;;2.30;99.90;;;;;;4165114;28;20029;-57
2022/01/01 03:56:48;;;;;;;131.00;39.05;;;2.30;99.90;;;;;;4163473;28;20091;-57
2022/01/01 03:58:50;;;;;;;295.50;47.25;;;2.30;99.90;;;;;;4165266;28;20080;-57
2022/01/01 04:00:53;;;;;;;304.77;53.22;;;2.40;99.90;;;;;;4162280;28;20497;-57
2022/01/01 04:03:05;;;;;;;180.65;48.97;;;2.30;99.90;;;;;;4166136;28;20045;-56
2022/01/01 04:05:08;;;;;;;245.70;51.42;;;2.20;99.90;;;;;;4157110;28;20045;-56
2022/01/01 04:07:10;;;;;;;170.43;47.67;;;2.20;99.90;;;;;;4164076;28;20069;-56
2022/01/01 04:09:14;;;;;;;160.68;46.97;;;2.10;99.90;;;;;;4161841;28;20057;-55
2022/01/01 04:11:16;;;;;;;67.80;43.28;;;2.10;99.90;;;;;;4166093;28;20045;-57
2022/01/01 04:13:18;;;;;;;49.30;42.20;;;2.20;99.90;;;;;;4162453;28;20406;-57
2022/01/01 04:15:20;;;;;;;88.43;41.55;;;2.20;99.90;;;;;;4165015;28;20050;-57
2022/01/01 04:17:22;;;;;;;39.58;35.97;;;2.20;99.90;;;;;;4164002;28;20486;-57
2022/01/01 04:19:34;;;;;;;37.83;33.80;;;2.30;99.90;;;;;;4163129;28;20037;-57
2022/01/01 04:21:36;;;;;;;36.17;32.73;;;2.40;99.90;;;;;;4162148;28;20056;-57
2022/01/01 04:23:39;;;;;;;34.40;31.08;;;2.30;99.90;;;;;;4164423;28;20045;-57
2022/01/01 04:25:44;;;;;;;36.45;29.92;;;2.40;99.90;;;;;;4160328;28;20041;-58
2022/01/01 04:27:46;;;;;;;40.13;32.35;;;2.40;99.90;;;;;;4164287;28;20501;-57
2022/01/01 04:29:48;;;;;;;;;;;2.40;99.90;;;;;;4162135;28;20434;-57
2022/01/01 04:31:50;;;;;;;30.92;27.88;;;2.50;99.90;;;;;;4164962;28;20416;-57
2022/01/01 04:33:52;;;;;;;148.90;35.85;;;2.50;99.90;;;;;;4163574;28;20045;-57
2022/01/01 04:35:54;;;;;;;152.88;39.13;;;2.40;99.90;;;;;;4163869;28;20052;-57
2022/01/01 04:37:56;;;;;;;73.00;38.42;;;2.50;99.90;;;;;;4164378;28;20065;-57
2022/01/01 04:39:59;;;;;;;50.78;38.75;;;2.40;99.90;;;;;;4164600;28;20077;-57
2022/01/01 04:42:01;;;;;;;48.38;35.53;;;2.40;99.90;;;;;;4162253;28;20069;-57
2022/01/01 04:44:04;;;;;;;41.63;34.92;;;2.50;99.90;;;;;;4164899;28;20107;-57
2022/01/01 04:46:06;;;;;;;39.83;32.72;;;2.60;99.90;;;;;;4160672;28;20065;-57
2022/01/01 04:48:08;;;;;;;;;;;2.60;99.90;;;;;;4165277;28;20477;-56
2022/01/01 04:50:12;;;;;;;38.30;32.53;;;2.60;99.90;;;;;;4162293;28;19948;-57
2022/01/01 04:52:14;;;;;;;43.53;34.08;;;2.60;99.90;;;;;;4165036;28;20048;-57
2022/01/01 04:54:17;;;;;;;48.63;35.72;;;2.60;99.90;;;;;;4160633;28;20509;-56
2022/01/01 04:56:21;;;;;;;43.03;32.80;;;2.60;99.90;;;;;;4164996;28;20111;-57
2022/01/01 04:58:23;;;;;;;36.50;32.70;;;2.70;99.90;;;;;;4162119;28;20065;-56
2022/01/01 05:00:24;;;;;;;66.88;33.38;;;2.80;99.90;;;;;;4148289;28;20053;-57
2022/01/01 05:02:27;;;;;;;96.28;37.40;;;2.80;99.90;;;;;;4161856;28;20477;-57
2022/01/01 05:04:29;;;;;;;59.47;33.92;;;2.80;99.90;;;;;;4164268;28;20405;-57
2022/01/01 05:06:31;;;;;;;91.50;36.10;;;2.80;99.90;;;;;;4163441;28;20049;-57
2022/01/01 05:08:33;;;;;;;95.68;38.03;;;2.80;99.90;;;;;;4164162;28;20033;-57
2022/01/01 05:10:35;;;;;;;163.13;34.88;;;2.80;99.90;;;;;;4162952;28;20042;-57
2022/01/01 05:12:37;;;;;;;138.77;33.90;;;2.70;99.90;;;;;;4164408;28;20124;-57
2022/01/01 05:14:39;;;;;;;90.32;31.23;;;2.70;99.90;;;;;;4162247;28;20045;-57
2022/01/01 05:16:41;;;;;;;188.55;31.38;;;2.70;99.90;;;;;;4162225;28;20057;-57
2022/01/01 05:18:44;;;;;;;138.00;35.35;;;2.70;99.90;;;;;;4161815;28;20063;-57
2022/01/01 05:20:46;;;;;;;;;;;2.60;99.90;;;;;;4163817;28;20124;-57
2022/01/01 05:22:48;;;;;;;68.68;32.22;;;2.60;99.90;;;;;;4162978;28;19964;-56
2022/01/01 05:24:50;;;;;;;74.82;32.90;;;2.60;99.90;;;;;;4149116;28;20042;-57
2022/01/01 05:26:52;;;;;;;33.92;30.40;;;2.70;99.90;;;;;;4164987;28;20033;-57
2022/01/01 05:28:54;;;;;;;68.10;32.97;;;2.70;99.90;;;;;;4175153;28;20038;-57
2022/01/01 05:30:56;;;;;;;74.60;31.88;;;2.60;99.90;;;;;;4163279;28;20044;-57
2022/01/01 05:32:59;;;;;;;245.50;37.72;;;2.70;99.90;;;;;;4160189;28;20095;-57
2022/01/01 05:35:02;;;;;;;264.60;44.42;;;2.60;99.90;;;;;;4158059;28;20081;-57
2022/01/01 05:37:05;;;;;;;204.98;46.55;;;2.50;99.90;;;;;;4157661;28;20037;-56
2022/01/01 05:39:08;;;;;;;99.20;44.42;;;2.40;99.90;;;;;;4162887;28;20041;-57
2022/01/01 05:41:10;;;;;;;57.78;42.22;;;2.50;99.90;;;;;;4161194;28;20497;-57
2022/01/01 05:43:13;;;;;;;43.65;37.63;;;2.50;99.90;;;;;;4164191;28;20038;-57
2022/01/01 05:45:16;;;;;;;49.65;37.72;;;2.60;99.90;;;;;;4161309;28;20410;-56
2022/01/01 05:47:18;;;;;;;116.78;40.40;;;2.70;99.90;;;;;;4164257;28;20038;-56
2022/01/01 05:49:21;;;;;;;96.90;37.03;;;2.80;99.90;;;;;;4161005;28;20061;-57
2022/01/01 05:51:23;;;;;;;44.92;31.17;;;2.80;99.90;;;;;;4163231;28;20061;-56
2022/01/01 05:53:25;;;;;;;87.68;31.75;;;2.80;99.90;;;;;;4161920;28;20634;-56
2022/01/01 05:55:27;;;;;;;125.20;31.83;;;2.80;99.90;;;;;;4162933;28;20037;-57
2022/01/01 05:57:29;;;;;;;138.65;29.73;;;2.80;99.90;;;;;;4160889;28;20037;-57
2022/01/01 05:59:31;;;;;;;142.20;28.58;;;2.80;99.90;;;;;;4157448;28;20042;-56
2022/01/01 06:01:33;;;;;;;107.22;28.88;;;2.80;99.90;;;;;;4151052;28;20045;-57
2022/01/01 06:03:36;;;;;;;129.00;24.55;;;2.70;99.90;;;;;;4163024;28;20038;-57
2022/01/01 06:05:38;;;;;;;172.55;34.55;;;2.70;99.90;;;;;;4161727;28;20033;-57
2022/01/01 06:07:40;;;;;;;174.82;34.83;;;2.70;99.90;;;;;;4162804;28;20034;-56
2022/01/01 06:09:42;;;;;;;197.15;35.60;;;2.70;99.90;;;;;;4162071;28;20049;-57
2022/01/01 06:11:44;;;;;;;166.35;35.80;;;2.70;99.90;;;;;;4155746;28;20033;-57
2022/01/01 06:13:46;;;;;;;203.35;35.88;;;2.60;99.90;;;;;;4151797;28;20033;-56
2022/01/01 06:15:48;;;;;;;107.28;31.15;;;2.60;99.90;;;;;;4162899;28;20042;-57
2022/01/01 06:17:50;;;;;;;187.23;34.30;;;2.60;99.90;;;;;;4159559;28;20069;-56
2022/01/01 06:19:52;;;;;;;163.13;34.72;;;2.60;99.90;;;;;;4161951;28;20541;-56
2022/01/01 06:21:54;;;;;;;183.75;33.85;;;2.60;99.90;;;;;;4161440;28;20103;-57
2022/01/01 06:24:00;;;;;;;126.10;27.48;;;2.60;99.90;;;;;;4161563;28;20600;-57
2022/01/01 06:26:04;;;;;;;109.32;34.75;;;2.60;99.90;;;;;;4160896;28;20076;-57
2022/01/01 06:28:06;;;;;;;168.85;34.95;;;2.60;99.90;;;;;;4163640;28;20641;-57
2022/01/01 06:30:08;;;;;;;164.63;37.45;;;2.60;99.90;;;;;;4161334;28;20065;-56
2022/01/01 06:32:10;;;;;;;;;;;2.60;99.90;;;;;;4153302;28;20064;-57
2022/01/01 06:34:12;;;;;;;116.00;33.22;;;2.60;99.90;;;;;;4152471;28;19972;-57
2022/01/01 06:36:17;;;;;;;68.78;32.40;;;2.60;99.90;;;;;;4171851;28;20040;-56
2022/01/01 06:38:19;;;;;;;32.55;29.15;;;2.60;99.90;;;;;;4160075;28;20053;-57
2022/01/01 06:40:21;;;;;;;44.45;25.80;;;2.70;99.90;;;;;;4163682;28;20048;-57
2022/01/01 06:42:23;;;;;;;28.33;25.42;;;2.70;99.90;;;;;;4160527;28;20076;-56
2022/01/01 06:44:25;;;;;;;31.83;25.80;;;2.80;99.90;;;;;;4162849;28;20061;-57
2022/01/01 06:46:27;;;;;;;;;;;2.80;99.90;;;;;;4160904;28;20032;-57
2022/01/01 06:48:30;;;;;;;27.85;21.60;;;2.80;99.90;;;;;;4162522;28;20412;-57
2022/01/01 06:50:32;;;;;;;31.27;20.58;;;2.90;99.90;;;;;;4159975;28;20037;-56
2022/01/01 06:52:40;;;;;;;37.88;23.95;;;2.90;99.90;;;;;;4158198;28;20091;-57
2022/01/01 06:54:42;;;;;;;28.48;22.58;;;2.90;99.90;;;;;;4157155;28;20044;-57
2022/01/01 06:56:44;;;;;;;24.15;21.10;;;2.90;99.90;;;;;;4161585;28;20049;-57
2022/01/01 06:58:46;;;;;;;29.23;21.33;;;3.00;99.90;;;;;;4159531;28;20044;-57
2022/01/01 07:00:48;;;;;;;31.13;20.95;;;3.10;99.90;;;;;;4164004;28;20065;-57
2022/01/01 07:02:50;;;;;;;34.78;21.75;;;3.10;99.90;;;;;;4158252;28;20116;-56
2022/01/01 07:04:53;;;;;;;27.55;20.25;;;3.10;99.90;;;;;;4178384;28;20513;-57
2022/01/01 07:06:55;;;;;;;22.30;19.75;;;3.10;99.90;;;;;;4163731;28;20497;-57
2022/01/01 07:08:57;;;;;;;22.60;18.40;;;3.20;99.90;;;;;;4165078;28;20038;-57
2022/01/01 07:10:59;;;;;;;49.42;21.13;;;3.30;99.90;;;;;;4165266;28;20041;-56
2022/01/01 07:13:01;;;;;;;168.88;31.80;;;3.30;99.90;;;;;;4166007;28;20045;-57
2022/01/01 07:15:07;;;;;;;169.23;32.33;;;3.20;99.90;;;;;;4162494;28;20053;-57
2022/01/01 07:17:09;;;;;;;315.10;39.22;;;3.20;99.90;;;;;;4166058;28;20050;-57
2022/01/01 07:19:11;;;;;;;233.30;33.17;;;3.10;99.90;;;;;;4162901;28;20078;-56
2022/01/01 07:21:13;;;;;;;246.00;35.58;;;3.00;99.90;;;;;;4166027;28;20048;-57
2022/01/01 07:23:16;;;;;;;255.57;38.08;;;3.00;99.90;;;;;;4162874;28;20472;-57
2022/01/01 07:25:19;;;;;;;221.88;37.58;;;3.00;99.90;;;;;;4166797;28;20086;-57
2022/01/01 07:27:21;;;;;;;209.52;38.15;;;3.00;99.90;;;;;;4163076;28;20109;-57
2022/01/01 07:29:23;;;;;;;240.32;40.08;;;2.90;99.90;;;;;;4166085;28;20079;-57
2022/01/01 07:31:26;;;;;;;155.70;37.35;;;2.90;99.90;;;;;;4162052;28;20037;-57
2022/01/01 07:33:28;;;;;;;127.68;35.90;;;3.00;99.90;;;;;;4166077;28;20084;-58
2022/01/01 07:35:35;;;;;;;79.22;25.63;;;3.00;99.90;;;;;;4162976;28;20065;-57
2022/01/01 07:37:38;;;;;;;116.13;26.63;;;3.00;99.90;;;;;;4165723;28;20042;-57
2022/01/01 07:39:40;;;;;;;87.53;24.90;;;3.00;99.90;;;;;;4163351;28;20057;-57
2022/01/01 07:41:42;;;;;;;87.45;25.33;;;3.10;99.90;;;;;;4163868;28;20106;-57
2022/01/01 07:43:44;;;;;;;74.32;24.92;;;3.10;99.90;;;;;;4161995;28;20048;-57
2022/01/01 07:45:46;;;;;;;120.63;34.05;;;3.10;99.90;;;;;;4165499;28;20042;-57
2022/01/01 07:47:49;;;;;;;146.52;29.65;;;3.10;99.90;;;;;;4163759;28;20497;-57
2022/01/01 07:49:51;;;;;;;109.70;29.13;;;3.10;99.90;;;;;;4165241;28;20033;-57
2022/01/01 07:51:53;;;;;;;94.82;30.63;;;3.10;99.90;;;;;;4163596;28;20068;-57
2022/01/01 07:53:55;;;;;;;76.63;26.52;;;3.10;99.90;;;;;;4165123;28;20124;-57
2022/01/01 07:55:57;;;;;;;84.45;27.80;;;3.20;99.90;;;;;;4162737;28;20061;-57
2022/01/01 07:57:59;;;;;;;92.43;32.63;;;3.20;99.90;;;;;;4164085;28;20079;-56
2022/01/01 08:00:03;;;;;;;141.45;39.50;;;3.20;99.90;;;;;;4163622;28;20528;-57
2022/01/01 08:02:06;;;;;;;74.05;33.30;;;3.20;99.90;;;;;;4164726;28;20056;-57
2022/01/01 08:04:08;;;;;;;171.45;36.38;;;3.30;99.90;;;;;;4162695;28;20490;-57
2022/01/01 08:06:10;;;;;;;159.32;33.97;;;3.30;99.90;;;;;;4164362;28;20045;-57
2022/01/01 08:08:12;;;;;;;183.02;33.88;;;3.30;99.90;;;;;;4164955;28;20073;-57
2022/01/01 08:10:14;;;;;;;146.05;35.10;;;3.30;99.90;;;;;;4163709;28;20140;-57
2022/01/01 08:12:16;;;;;;;116.53;43.35;;;3.40;99.90;;;;;;4163297;28;20506;-57
2022/01/01 08:14:18;;;;;;;175.82;45.92;;;3.40;99.90;;;;;;4163526;28;20033;-57
2022/01/01 08:16:21;;;;;;;173.25;44.25;;;3.40;99.90;;;;;;4164271;28;20461;-57
2022/01/01 08:18:23;;;;;;;153.40;35.20;;;3.40;99.90;;;;;;4162643;28;20073;-57
2022/01/01 08:20:25;;;;;;;139.32;34.67;;;3.50;99.90;;;;;;4165135;28;20065;-57
2022/01/01 08:22:27;;;;;;;139.18;34.47;;;3.50;99.90;;;;;;4162344;28;20096;-57
2022/01/01 08:24:29;;;;;;;167.85;38.28;;;3.60;99.90;;;;;;4163727;28;20032;-57
2022/01/01 08:26:32;;;;;;;188.45;36.63;;;3.60;99.90;;;;;;4162950;28;20061;-57
2022/01/01 08:28:34;;;;;;;134.05;32.90;;;3.60;99.90;;;;;;4163959;28;20060;-57
2022/01/01 08:30:36;;;;;;;94.07;31.15;;;3.60;99.90;;;;;;4162219;28;20720;-56
2022/01/01 08:32:38;;;;;;;124.88;28.90;;;3.70;99.90;;;;;;4165238;28;20041;-57
2022/01/01 08:34:40;;;;;;;133.38;29.08;;;3.70;99.90;;;;;;4163339;28;20045;-57
2022/01/01 08:36:42;;;;;;;163.13;26.45;;;3.70;99.90;;;;;;4147592;28;20850;-57
2022/01/01 08:38:44;;;;;;;141.90;27.00;;;3.70;99.90;;;;;;4161645;28;20446;-57
2022/01/01 08:40:46;;;;;;;89.38;25.13;;;3.70;99.90;;;;;;4163098;28;20125;-57
2022/01/01 08:42:48;;;;;;;72.32;24.40;;;3.70;99.90;;;;;;4161817;28;20474;-57
2022/01/01 08:44:51;;;;;;;111.80;26.40;;;3.80;99.90;;;;;;4164039;28;20064;-57
2022/01/01 08:46:53;;;;;;;63.55;23.35;;;3.80;99.90;;;;;;4161771;28;20046;-57
2022/01/01 08:48:55;;;;;;;169.38;26.33;;;3.90;99.90;;;;;;4164162;28;20426;-57
2022/01/01 08:50:57;;;;;;;165.85;26.88;;;3.90;99.90;;;;;;4161890;28;20092;-57
2022/01/01 08:52:59;;;;;;;181.95;28.02;;;3.90;99.90;;;;;;4163940;28;20049;-57
2022/01/01 08:55:02;;;;;;;184.27;26.13;;;3.90;99.90;;;;;;4161708;28;20042;-57
2022/01/01 08:57:04;;;;;;;268.95;33.50;;;3.90;99.90;;;;;;4165036;28;20069;-57
2022/01/01 08:59:11;;;;;;;205.82;28.67;;;3.90;99.90;;;;;;4161640;28;20091;-57
2022/01/01 09:01:13;;;;;;;204.60;28.35;;;3.90;99.90;;;;;;4162977;28;20081;-56
2022/01/01 09:03:16;;;;;;;75.22;20.20;;;4.00;99.90;;;;;;4162271;28;20087;-57
2022/01/01 09:05:18;;;;;;;38.10;18.92;;;4.00;99.90;;;;;;4168001;28;20040;-58
2022/01/01 09:07:20;;;;;;;42.80;17.17;;;4.00;99.90;;;;;;4161266;28;20041;-57
2022/01/01 09:09:22;;;;;;;164.52;20.73;;;4.10;99.90;;;;;;4164640;28;20037;-57
2022/01/01 09:11:28;;;;;;;61.15;18.52;;;4.20;99.90;;;;;;4161162;28;20047;-57
2022/01/01 09:13:30;;;;;;;45.83;17.50;;;4.10;99.90;;;;;;4162548;28;20038;-57
2022/01/01 09:15:32;;;;;;;41.55;17.25;;;4.10;99.90;;;;;;4161363;28;20033;-57
2022/01/01 09:17:34;;;;;;;43.22;13.80;;;4.20;99.90;;;;;;4157328;28;20052;-57
2022/01/01 09:19:36;;;;;;;58.45;18.83;;;4.10;99.90;;;;;;4153252;28;20038;-57
2022/01/01 09:21:38;;;;;;;125.60;18.95;;;4.10;99.90;;;;;;4156475;28;20105;-57
2022/01/01 09:23:40;;;;;;;131.65;22.02;;;4.10;99.90;;;;;;4158666;28;20076;-57
2022/01/01 09:25:42;;;;;;;277.45;45.70;;;4.20;99.90;;;;;;4164376;28;20044;-56
2022/01/01 09:27:45;;;;;;;132.00;32.47;;;4.20;99.90;;;;;;4159269;28;20030;-57
2022/01/01 09:29:47;;;;;;;100.32;31.27;;;4.20;99.90;;;;;;4164675;28;20030;-57
2022/01/01 09:31:49;;;;;;;132.60;20.92;;;4.20;99.90;;;;;;4161077;28;20064;-58
2022/01/01 09:33:51;;;;;;;123.82;25.27;;;4.30;99.90;;;;;;4172410;28;20064;-57
2022/01/01 09:35:53;;;;;;;84.82;22.73;;;4.20;99.90;;;;;;4168226;28;20041;-57
2022/01/01 09:37:55;;;;;;;85.80;18.92;;;4.30;99.90;;;;;;4163985;28;20083;-58
2022/01/01 09:39:58;;;;;;;171.05;21.45;;;4.40;99.90;;;;;;4159122;28;20046;-57
2022/01/01 09:42:02;;;;;;;74.55;35.13;;;4.40;99.90;;;;;;4151519;28;20037;-57
2022/01/01 09:44:05;;;;;;;59.03;28.60;;;4.40;99.90;;;;;;4152877;28;20075;-57
2022/01/01 09:46:12;;;;;;;125.93;19.00;;;4.50;99.90;;;;;;4155662;28;20398;-57
2022/01/01 09:48:14;;;;;;;38.13;15.98;;;4.50;99.90;;;;;;4160888;28;20043;-57
2022/01/01 09:50:16;;;;;;;65.32;17.88;;;4.50;99.90;;;;;;4162496;28;20112;-57
2022/01/01 09:52:19;;;;;;;60.50;22.83;;;4.50;99.90;;;;;;4160302;28;20064;-56
2022/01/01 09:54:21;;;;;;;144.27;20.08;;;4.50;99.90;;;;;;4164694;28;20080;-58
2022/01/01 09:56:23;;;;;;;183.35;30.55;;;4.50;99.90;;;;;;4161231;28;20281;-57
2022/01/01 09:58:28;;;;;;;135.82;44.15;;;4.50;99.90;;;;;;4164339;28;20715;-57
2022/01/01 10:00:30;;;;;;;149.65;40.28;;;4.50;99.90;;;;;;4160346;28;20065;-56
2022/01/01 10:02:32;;;;;;;83.53;29.33;;;4.50;99.90;;;;;;4164398;28;20050;-57
2022/01/01 10:04:51;;;;;;;178.40;25.67;;;4.50;99.90;;;;;;4161757;28;20108;-56
2022/01/01 10:07:04;;;;;;;155.40;26.50;;;4.60;99.90;;;;;;4163203;28;20033;-57
2022/01/01 10:09:08;;;;;;;143.27;30.55;;;4.60;99.90;;;;;;4159516;28;20390;-57
2022/01/01 10:11:10;;;;;;;30.17;19.45;;;4.60;99.90;;;;;;4157360;28;20084;-57
2022/01/01 10:13:12;;;;;;;16.50;14.73;;;4.70;99.90;;;;;;4161963;28;20030;-57
2022/01/01 10:15:15;;;;;;;49.38;14.55;;;4.80;99.90;;;;;;4163596;28;20104;-57
2022/01/01 10:17:20;;;;;;;117.18;18.35;;;4.80;99.90;;;;;;4159926;28;20068;-56
2022/01/01 10:19:29;;;;;;;51.25;16.88;;;4.70;99.90;;;;;;4161981;28;20038;-57
2022/01/01 10:21:37;;;;;;;31.63;17.80;;;4.70;99.90;;;;;;4160166;28;20049;-57
2022/01/01 10:23:43;;;;;;;20.42;16.50;;;4.70;99.90;;;;;;4155948;28;20456;-57
2022/01/01 10:28:06;;;;;;;158.50;21.67;;;4.90;99.90;;;;;;4152614;28;20048;-57
2022/01/01 10:30:16;;;;;;;115.15;20.95;;;5.00;99.90;;;;;;4163443;28;20113;-57
2022/01/01 10:32:18;;;;;;;108.85;22.50;;;4.90;99.90;;;;;;4158788;28;20394;-57
2022/01/01 10:34:24;;;;;;;152.70;22.95;;;4.80;99.90;;;;;;4162589;28;20036;-57